createdAt,value
2022-08-27T00:01:35.146Z,99224.81
2022-08-27T00:04:24.273Z,99218.75
2022-08-27T00:07:13.636Z,99214.22
2022-08-27T00:10:01.387Z,99215.31
2022-08-27T00:12:49.651Z,99215.94
2022-08-27T00:15:37.935Z,99215.50
2022-08-27T00:18:27.051Z,99216.56
2022-08-27T00:21:16.454Z,99220.31
2022-08-27T00:24:05.105Z,99220.31
2022-08-27T00:26:53.970Z,99222.81
2022-08-27T00:29:42.123Z,99219.69
2022-08-27T00:32:29.807Z,99220.50
2022-08-27T00:35:18.725Z,99217.34
2022-08-27T00:38:10.219Z,99216.09
2022-08-27T00:41:01.323Z,99203.59
2022-08-27T00:43:53.842Z,99208.16
2022-08-27T00:46:46.088Z,99204.69
2022-08-27T00:49:40.755Z,99196.75
2022-08-27T00:52:32.159Z,99200.94
2022-08-27T00:55:26.152Z,99202.84
2022-08-27T00:58:22.902Z,99202.34
2022-08-27T01:01:16.794Z,99193.63
2022-08-27T01:04:07.074Z,99200.50
2022-08-27T01:06:55.400Z,99203.16
2022-08-27T01:09:44.688Z,99204.25
2022-08-27T01:12:35.542Z,99197.97
2022-08-27T01:15:26.672Z,99199.88
2022-08-27T01:18:16.807Z,99197.66
2022-08-27T01:21:11.840Z,99191.91
2022-08-27T01:24:15.159Z,99192.22
2022-08-27T01:27:13.272Z,99197.00
2022-08-27T01:30:02.548Z,99200.78
2022-08-27T01:32:50.810Z,99199.53
2022-08-27T01:35:38.999Z,99197.63
2022-08-27T01:38:30.911Z,99196.09
2022-08-27T01:41:20.598Z,99194.53
2022-08-27T01:44:23.192Z,99192.31
2022-08-27T01:47:11.127Z,99198.44
2022-08-27T01:49:59.548Z,99200.78
2022-08-27T01:52:48.028Z,99204.53
2022-08-27T01:55:36.751Z,99200.78
2022-08-27T01:58:29.236Z,99199.66
2022-08-27T02:01:18.681Z,99197.63
2022-08-27T02:04:06.460Z,99201.38
2022-08-27T02:06:54.373Z,99202.81
2022-08-27T02:09:42.362Z,99197.50
2022-08-27T02:12:30.163Z,99190.47
2022-08-27T02:15:19.586Z,99198.88
2022-08-27T02:18:10.358Z,99193.13
2022-08-27T02:20:57.939Z,99189.53
2022-08-27T02:23:45.604Z,99186.69
2022-08-27T02:26:33.341Z,99189.22
2022-08-27T02:29:21.171Z,99180.78
2022-08-27T02:32:17.776Z,99170.78
2022-08-27T02:35:19.803Z,99175.16
2022-08-27T02:38:08.078Z,99181.56
2022-08-27T02:40:56.180Z,99179.97
2022-08-27T02:43:44.230Z,99177.31
2022-08-27T02:46:33.973Z,99175.75
2022-08-27T02:49:21.940Z,99184.81
2022-08-27T02:52:11.302Z,99185.28
2022-08-27T02:54:59.815Z,99179.50
2022-08-27T02:57:48.597Z,99190.44
2022-08-27T03:00:36.874Z,99187.59
2022-08-27T03:03:24.555Z,99186.66
2022-08-27T03:06:12.994Z,99184.31
2022-08-27T03:09:02.211Z,99185.41
2022-08-27T03:11:49.831Z,99178.88
2022-08-27T03:14:37.998Z,99178.09
2022-08-27T03:17:43.417Z,99180.44
2022-08-27T03:20:31.648Z,99184.19
2022-08-27T03:23:22.779Z,99174.03
2022-08-27T03:26:13.563Z,99174.03
2022-08-27T03:29:01.649Z,99160.00
2022-08-27T03:31:49.252Z,99174.81
2022-08-27T03:34:36.914Z,99178.25
2022-08-27T03:37:24.571Z,99178.25
2022-08-27T03:40:14.167Z,99183.56
2022-08-27T03:43:03.819Z,99183.56
2022-08-27T03:46:01.417Z,99188.06
2022-08-27T03:48:50.503Z,99185.41
2022-08-27T03:51:41.461Z,99191.81
2022-08-27T03:54:29.217Z,99189.94
2022-08-27T03:57:17.098Z,99185.72
2022-08-27T04:00:08.715Z,99186.34
2022-08-27T04:03:00.190Z,99186.19
2022-08-27T04:05:53.780Z,99185.41
2022-08-27T04:08:41.693Z,99191.31
2022-08-27T04:11:30.102Z,99192.88
2022-08-27T04:14:26.515Z,99191.81
2022-08-27T04:17:16.372Z,99193.34
2022-08-27T04:20:31.831Z,99186.50
2022-08-27T04:23:14.370Z,99199.16
2022-08-27T04:26:05.698Z,99203.34
2022-08-27T04:28:54.065Z,99194.59
2022-08-27T04:31:42.225Z,99189.00
2022-08-27T04:34:31.551Z,99200.69
2022-08-27T04:37:23.292Z,99210.34
2022-08-27T04:40:13.310Z,99213.09
2022-08-27T04:43:01.291Z,99210.97
2022-08-27T04:45:50.745Z,99205.66
2022-08-27T04:48:38.609Z,99201.13
2022-08-27T04:51:28.560Z,99211.72
2022-08-27T04:54:17.328Z,99201.91
2022-08-27T04:57:07.246Z,99212.22
2022-08-27T04:59:57.064Z,99206.44
2022-08-27T05:02:44.680Z,99214.69
2022-08-27T05:05:32.366Z,99215.47
2022-08-27T05:08:21.997Z,99219.69
2022-08-27T05:11:11.947Z,99219.38
2022-08-27T05:14:00.228Z,99216.72
2022-08-27T05:16:48.372Z,99215.19
2022-08-27T05:19:36.148Z,99215.47
2022-08-27T05:22:23.806Z,99211.28
2022-08-27T05:25:13.316Z,99214.69
2022-08-27T05:28:01.343Z,99204.09
2022-08-27T05:30:56.094Z,99208.31
2022-08-27T05:33:45.688Z,99214.06
2022-08-27T05:36:35.926Z,99206.59
2022-08-27T05:39:24.260Z,99208.97
2022-08-27T05:42:13.673Z,99210.50
2022-08-27T05:45:01.566Z,99215.06
2022-08-27T05:47:49.430Z,99209.75
2022-08-27T05:50:37.376Z,99206.00
2022-08-27T05:53:25.233Z,99211.00
2022-08-27T05:56:19.318Z,99212.25
2022-08-27T05:59:26.369Z,99216.44
2022-08-27T06:02:14.508Z,99217.53
2022-08-27T06:05:03.437Z,99216.00
2022-08-27T06:07:53.308Z,99212.84
2022-08-27T06:10:43.201Z,99217.38
2022-08-27T06:13:31.440Z,99220.34
2022-08-27T06:16:21.326Z,99217.22
2022-08-27T06:19:12.288Z,99220.66
2022-08-27T06:22:09.903Z,99230.47
2022-08-27T06:24:58.804Z,99235.28
2022-08-27T06:27:47.008Z,99230.16
2022-08-27T06:30:34.733Z,99232.50
2022-08-27T06:33:24.079Z,99230.31
2022-08-27T06:36:15.025Z,99226.59
2022-08-27T06:39:02.714Z,99234.06
2022-08-27T06:41:50.831Z,99236.88
2022-08-27T06:44:47.916Z,99233.56
2022-08-27T06:47:35.806Z,99236.50
2022-08-27T06:50:27.366Z,99230.09
2022-08-27T06:53:16.507Z,99240.44
2022-08-27T06:56:05.640Z,99246.69
2022-08-27T06:58:55.517Z,99241.88
2022-08-27T07:01:47.294Z,99244.97
2022-08-27T07:04:35.379Z,99247.31
2022-08-27T07:07:30.228Z,99257.31
2022-08-27T07:10:23.378Z,99249.06
2022-08-27T07:13:11.481Z,99253.25
2022-08-27T07:16:00.522Z,99252.97
2022-08-27T07:18:50.673Z,99250.31
2022-08-27T07:21:43.093Z,99257.16
2022-08-27T07:24:33.095Z,99243.59
2022-08-27T07:27:21.614Z,99248.59
2022-08-27T07:30:13.903Z,99261.25
2022-08-27T07:33:01.502Z,99252.22
2022-08-27T07:35:49.656Z,99259.84
2022-08-27T07:38:38.239Z,99264.53
2022-08-27T07:41:31.252Z,99260.00
2022-08-27T07:44:34.428Z,99265.81
2022-08-27T07:47:23.011Z,99266.88
2022-08-27T07:50:12.825Z,99272.34
2022-08-27T07:53:01.557Z,99266.75
2022-08-27T07:55:49.487Z,99261.44
2022-08-27T07:58:39.379Z,99266.44
2022-08-27T08:01:28.017Z,99263.47
2022-08-27T08:04:20.087Z,99265.03
2022-08-27T08:07:08.528Z,99278.00
2022-08-27T08:09:56.574Z,99273.78
2022-08-27T08:12:44.446Z,99272.19
2022-08-27T08:15:34.302Z,99277.19
2022-08-27T08:18:22.078Z,99276.59
2022-08-27T08:21:12.308Z,99283.94
2022-08-27T08:24:00.379Z,99285.97
2022-08-27T08:26:48.242Z,99286.91
2022-08-27T08:29:37.712Z,99283.03
2022-08-27T08:32:27.139Z,99276.53
2022-08-27T08:35:15.150Z,99275.56
2022-08-27T08:38:02.695Z,99277.78
2022-08-27T08:40:54.716Z,99274.63
2022-08-27T08:43:51.465Z,99283.09
2022-08-27T08:46:42.753Z,99283.41
2022-08-27T08:49:57.611Z,99288.53
2022-08-27T08:52:53.944Z,99287.78
2022-08-27T08:55:48.513Z,99287.63
2022-08-27T08:58:45.111Z,99296.06
2022-08-27T09:01:33.398Z,99295.56
2022-08-27T09:04:21.519Z,99293.72
2022-08-27T09:07:18.729Z,99285.75
2022-08-27T09:10:18.274Z,99295.47
2022-08-27T09:13:23.282Z,99291.72
2022-08-27T09:16:11.583Z,99295.59
2022-08-27T09:19:05.943Z,99296.84
2022-08-27T09:22:03.299Z,99307.47
2022-08-27T09:25:09.161Z,99299.06
2022-08-27T09:28:01.617Z,99297.81
2022-08-27T09:30:49.652Z,99306.41
2022-08-27T09:33:44.547Z,99298.25
2022-08-27T09:37:01.685Z,99302.50
2022-08-27T09:40:01.345Z,99304.50
2022-08-27T09:42:53.676Z,99301.22
2022-08-27T09:45:51.583Z,99304.66
2022-08-27T09:48:39.778Z,99303.53
2022-08-27T09:51:30.929Z,99294.47
2022-08-27T09:54:42.711Z,99295.25
2022-08-27T09:57:41.584Z,99292.25
2022-08-27T10:00:39.308Z,99291.78
2022-08-27T10:03:32.648Z,99290.16
2022-08-27T10:06:29.222Z,99289.09
2022-08-27T10:09:24.160Z,99284.53
2022-08-27T10:12:28.190Z,99285.75
2022-08-27T10:15:18.493Z,99280.91
2022-08-27T10:18:14.411Z,99280.91
2022-08-27T10:21:11.362Z,99282.47
2022-08-27T10:24:23.730Z,99282.03
2022-08-27T10:27:20.255Z,99274.81
2022-08-27T10:30:12.504Z,99280.91
2022-08-27T10:33:22.840Z,99278.72
2022-08-27T10:36:28.991Z,99273.41
2022-08-27T10:39:29.203Z,99274.97
2022-08-27T10:42:24.432Z,99289.03
2022-08-27T10:45:30.612Z,99276.81
2022-08-27T10:48:32.332Z,99279.66
2022-08-27T10:51:28.112Z,99280.75
2022-08-27T10:54:26.011Z,99269.00
2022-08-27T10:57:39.536Z,99282.75
2022-08-27T11:00:44.670Z,99276.34
2022-08-27T11:03:41.545Z,99280.56
2022-08-27T11:06:37.709Z,99284.31
2022-08-27T11:09:36.788Z,99277.44
2022-08-27T11:12:32.940Z,99279.91
2022-08-27T11:15:30.865Z,99281.47
2022-08-27T11:18:26.630Z,99272.84
2022-08-27T11:21:25.619Z,99271.75
2022-08-27T11:24:33.130Z,99280.34
2022-08-27T11:27:27.932Z,99277.34
2022-08-27T11:30:25.606Z,99271.41
2022-08-27T11:33:27.648Z,99274.88
2022-08-27T11:36:54.379Z,99274.38
2022-08-27T11:40:24.947Z,99267.69
2022-08-27T11:43:17.994Z,99275.78
2022-08-27T11:46:08.092Z,99274.03
2022-08-27T11:49:02.375Z,99269.50
2022-08-27T11:52:00.743Z,99273.72
2022-08-27T11:54:53.253Z,99261.31
2022-08-27T11:57:44.110Z,99260.69
2022-08-27T12:00:35.652Z,99261.63
2022-08-27T12:03:31.463Z,99273.94
2022-08-27T12:06:27.526Z,99261.88
2022-08-27T12:09:21.924Z,99261.88
2022-08-27T12:12:23.518Z,99262.00
2022-08-27T12:15:22.369Z,99253.69
2022-08-27T12:18:42.812Z,99254.16
2022-08-27T12:21:46.092Z,99254.75
2022-08-27T12:24:55.476Z,99259.44
2022-08-27T12:27:44.270Z,99248.88
2022-08-27T12:30:35.662Z,99252.13
2022-08-27T12:33:34.834Z,99239.78
2022-08-27T12:36:35.866Z,99239.44
2022-08-27T12:39:37.479Z,99233.47
2022-08-27T12:42:41.308Z,99240.38
2022-08-27T12:45:57.062Z,99240.81
2022-08-27T12:48:57.511Z,99240.81
2022-08-27T12:51:47.685Z,99237.50
2022-08-27T12:54:44.641Z,99226.19
2022-08-27T12:57:41.099Z,99228.84
2022-08-27T13:00:36.105Z,99226.97
2022-08-27T13:03:33.277Z,99224.00
2022-08-27T13:06:24.644Z,99221.50
2022-08-27T13:09:13.235Z,99226.03
2022-08-27T13:12:03.985Z,99219.97
2022-08-27T13:14:57.135Z,99217.72
2022-08-27T13:17:50.926Z,99221.50
2022-08-27T13:20:41.318Z,99217.72
2022-08-27T13:23:46.771Z,99219.31
2022-08-27T13:26:38.737Z,99217.09
2022-08-27T13:29:28.716Z,99214.41
2022-08-27T13:32:18.660Z,99214.88
2022-08-27T13:35:09.178Z,99220.22
2022-08-27T13:37:58.543Z,99208.44
2022-08-27T13:41:01.213Z,99214.88
2022-08-27T13:43:57.050Z,99219.00
2022-08-27T13:46:53.271Z,99212.41
2022-08-27T13:49:42.862Z,99212.41
2022-08-27T13:52:35.866Z,99215.06
2022-08-27T13:55:22.803Z,99207.06
2022-08-27T13:58:17.171Z,99211.31
2022-08-27T14:01:17.767Z,99205.84
2022-08-27T14:04:08.832Z,99209.31
2022-08-27T14:06:59.329Z,99205.53
2022-08-27T14:09:54.378Z,99202.53
2022-08-27T14:12:46.186Z,99201.44
2022-08-27T14:15:39.124Z,99200.34
2022-08-27T14:18:55.102Z,99204.22
2022-08-27T14:21:41.849Z,99209.22
2022-08-27T14:24:31.358Z,99212.66
2022-08-27T14:27:20.261Z,99207.31
2022-08-27T14:30:10.969Z,99212.00
2022-08-27T14:33:00.597Z,99202.94
2022-08-27T14:35:49.335Z,99206.34
2022-08-27T14:38:40.934Z,99199.16
2022-08-27T14:41:30.755Z,99207.59
2022-08-27T14:44:21.296Z,99211.50
2022-08-27T14:47:11.264Z,99204.72
2022-08-27T14:49:59.309Z,99202.53
2022-08-27T14:52:46.807Z,99202.53
2022-08-27T14:55:34.569Z,99205.19
2022-08-27T14:58:23.503Z,99211.59
2022-08-27T15:01:11.367Z,99200.94
2022-08-27T15:03:59.602Z,99202.53
2022-08-27T15:06:47.090Z,99203.41
2022-08-27T15:09:36.043Z,99200.75
2022-08-27T15:12:26.432Z,99203.09
2022-08-27T15:15:15.847Z,99207.63
2022-08-27T15:18:03.027Z,99206.50
2022-08-27T15:20:50.955Z,99201.19
2022-08-27T15:23:39.071Z,99203.53
2022-08-27T15:26:26.832Z,99204.78
2022-08-27T15:29:14.165Z,99188.44
2022-08-27T15:32:03.087Z,99190.09
2022-08-27T15:34:50.393Z,99204.81
2022-08-27T15:37:38.280Z,99198.84
2022-08-27T15:40:27.910Z,99200.84
2022-08-27T15:43:16.318Z,99207.41
2022-08-27T15:46:03.928Z,99199.06
2022-08-27T15:48:53.721Z,99197.53
2022-08-27T15:51:41.703Z,99202.84
2022-08-27T15:54:29.708Z,99201.75
2022-08-27T15:57:17.799Z,99201.41
2022-08-27T16:00:06.883Z,99197.63
2022-08-27T16:02:55.160Z,99195.75
2022-08-27T16:05:46.670Z,99197.75
2022-08-27T16:08:36.845Z,99196.97
2022-08-27T16:11:29.560Z,99193.88
2022-08-27T16:14:17.671Z,99198.41
2022-08-27T16:17:05.205Z,99197.63
2022-08-27T16:19:56.891Z,99189.97
2022-08-27T16:22:45.946Z,99202.84
2022-08-27T16:25:33.802Z,99202.84
2022-08-27T16:28:21.407Z,99202.84
2022-08-27T16:31:11.541Z,99197.06
2022-08-27T16:34:00.134Z,99210.38
2022-08-27T16:36:47.790Z,99204.31
2022-08-27T16:39:40.440Z,99208.50
2022-08-27T16:42:28.280Z,99203.50
2022-08-27T16:45:17.386Z,99207.28
2022-08-27T16:48:22.980Z,99200.28
2022-08-27T16:51:15.853Z,99207.78
2022-08-27T16:54:04.399Z,99207.00
2022-08-27T16:56:53.322Z,99205.00
2022-08-27T16:59:40.822Z,99206.88
2022-08-27T17:02:32.836Z,99207.69
2022-08-27T17:05:34.080Z,99206.75
2022-08-27T17:08:26.262Z,99209.41
2022-08-27T17:11:17.875Z,99216.66
2022-08-27T17:14:08.031Z,99235.63
2022-08-27T17:16:55.413Z,99221.84
2022-08-27T17:19:42.794Z,99226.75
2022-08-27T17:22:30.138Z,99230.50
2022-08-27T17:25:17.466Z,99234.75
2022-08-27T17:28:05.304Z,99238.50
2022-08-27T17:30:55.527Z,99239.13
2022-08-27T17:33:47.890Z,99237.16
2022-08-27T17:36:35.702Z,99237.03
2022-08-27T17:39:23.276Z,99234.25
2022-08-27T17:42:10.724Z,99238.66
2022-08-27T17:44:58.651Z,99236.19
2022-08-27T17:47:47.446Z,99231.50
2022-08-27T17:50:35.108Z,99236.25
2022-08-27T17:53:22.426Z,99243.47
2022-08-27T17:56:09.819Z,99241.00
2022-08-27T17:58:57.562Z,99240.53
2022-08-27T18:01:44.956Z,99246.16
2022-08-27T18:04:33.729Z,99243.38
2022-08-27T18:07:21.510Z,99239.81
2022-08-27T18:10:11.092Z,99239.69
2022-08-27T18:12:58.680Z,99257.09
2022-08-27T18:15:46.221Z,99255.38
2022-08-27T18:18:34.132Z,99254.16
2022-08-27T18:21:25.516Z,99260.56
2022-08-27T18:24:13.572Z,99263.88
2022-08-27T18:27:01.038Z,99263.44
2022-08-27T18:29:50.034Z,99270.19
2022-08-27T18:32:41.494Z,99270.50
2022-08-27T18:35:32.590Z,99278.34
2022-08-27T18:38:21.291Z,99276.66
2022-08-27T18:41:09.109Z,99286.38
2022-08-27T18:43:56.757Z,99292.22
2022-08-27T18:46:46.681Z,99293.19
2022-08-27T18:49:34.758Z,99295.97
2022-08-27T18:52:23.686Z,99295.53
2022-08-27T18:55:20.709Z,99296.16
2022-08-27T18:58:08.353Z,99302.91
2022-08-27T19:00:59.858Z,99308.06
2022-08-27T19:03:50.548Z,99309.50
2022-08-27T19:06:38.656Z,99316.25
2022-08-27T19:09:27.155Z,99322.19
2022-08-27T19:12:16.081Z,99321.28
2022-08-27T19:15:03.775Z,99319.69
2022-08-27T19:17:55.428Z,99317.34
2022-08-27T19:20:43.412Z,99320.34
2022-08-27T19:23:30.970Z,99330.22
2022-08-27T19:26:21.319Z,99329.41
2022-08-27T19:29:11.053Z,99328.97
2022-08-27T19:31:58.633Z,99330.03
2022-08-27T19:34:46.156Z,99337.59
2022-08-27T19:37:53.128Z,99339.75
2022-08-27T19:40:41.307Z,99344.78
2022-08-27T19:43:28.748Z,99349.50
2022-08-27T19:46:20.162Z,99348.88
2022-08-27T19:49:07.621Z,99358.25
2022-08-27T19:51:55.251Z,99347.63
2022-08-27T19:54:57.234Z,99354.81
2022-08-27T19:57:50.440Z,99357.59
2022-08-27T20:00:37.813Z,99354.50
2022-08-27T20:03:26.610Z,99356.69
2022-08-27T20:06:14.597Z,99354.03
2022-08-27T20:09:06.391Z,99365.75
2022-08-27T20:11:54.477Z,99367.94
2022-08-27T20:14:41.892Z,99357.47
2022-08-27T20:17:29.847Z,99366.06
2022-08-27T20:20:23.215Z,99350.31
2022-08-27T20:23:10.866Z,99357.50
2022-08-27T20:26:01.190Z,99369.84
2022-08-27T20:28:49.697Z,99362.00
2022-08-27T20:31:37.059Z,99365.47
2022-08-27T20:34:24.539Z,99364.03
2022-08-27T20:37:18.711Z,99367.91
2022-08-27T20:40:08.073Z,99364.31
2022-08-27T20:42:56.270Z,99374.94
2022-08-27T20:45:44.466Z,99378.53
2022-08-27T20:48:32.482Z,99380.25
2022-08-27T20:51:20.114Z,99380.09
2022-08-27T20:54:09.057Z,99379.75
2022-08-27T20:56:56.772Z,99384.09
2022-08-27T21:00:01.679Z,99385.81
2022-08-27T21:02:49.390Z,99389.88
2022-08-27T21:05:39.101Z,99397.53
2022-08-27T21:08:28.221Z,99381.91
2022-08-27T21:11:18.555Z,99393.94
2022-08-27T21:14:06.486Z,99389.69
2022-08-27T21:16:54.272Z,99393.16
2022-08-27T21:19:42.418Z,99393.00
2022-08-27T21:22:30.608Z,99390.97
2022-08-27T21:25:19.097Z,99400.00
2022-08-27T21:28:08.634Z,99402.63
2022-08-27T21:30:56.627Z,99403.75
2022-08-27T21:33:44.753Z,99403.59
2022-08-27T21:36:33.168Z,99411.84
2022-08-27T21:39:21.006Z,99406.53
2022-08-27T21:42:10.229Z,99412.94
2022-08-27T21:44:59.355Z,99411.94
2022-08-27T21:47:47.300Z,99410.09
2022-08-27T21:50:35.407Z,99412.47
2022-08-27T21:53:23.754Z,99416.69
2022-08-27T21:56:12.208Z,99412.47
2022-08-27T21:59:00.305Z,99417.25
2022-08-27T22:01:55.818Z,99419.44
2022-08-27T22:04:48.515Z,99415.34
2022-08-27T22:07:36.289Z,99412.22
2022-08-27T22:10:24.086Z,99414.88
2022-08-27T22:13:12.786Z,99417.53
2022-08-27T22:16:00.732Z,99407.53
2022-08-27T22:18:54.497Z,99412.81
2022-08-27T22:21:42.969Z,99406.56
2022-08-27T22:24:30.851Z,99402.47
2022-08-27T22:27:18.947Z,99413.41
2022-08-27T22:30:11.315Z,99402.47
2022-08-27T22:32:59.693Z,99401.72
2022-08-27T22:35:49.293Z,99403.56
2022-08-27T22:38:37.032Z,99407.78
2022-08-27T22:41:26.225Z,99402.47
2022-08-27T22:44:14.164Z,99399.38
2022-08-27T22:47:02.220Z,99403.72
2022-08-27T22:49:52.760Z,99398.72
2022-08-27T22:52:43.298Z,99401.06
2022-08-27T22:55:31.288Z,99406.38
2022-08-27T22:58:19.663Z,99405.41
2022-08-27T23:01:12.207Z,99402.88
2022-08-27T23:04:00.483Z,99396.16
2022-08-27T23:06:51.171Z,99403.94
2022-08-27T23:09:40.097Z,99406.69
2022-08-27T23:12:28.334Z,99408.41
2022-08-27T23:15:18.847Z,99415.69
2022-08-27T23:18:07.018Z,99412.81
2022-08-27T23:20:55.264Z,99404.72
2022-08-27T23:23:43.128Z,99395.81
2022-08-27T23:26:49.779Z,99395.31
2022-08-27T23:29:37.790Z,99405.44
2022-08-27T23:32:25.922Z,99404.81
2022-08-27T23:35:15.020Z,99399.38
2022-08-27T23:38:03.390Z,99405.25
2022-08-27T23:40:52.326Z,99412.91
2022-08-27T23:43:41.823Z,99410.72
2022-08-27T23:46:30.693Z,99405.44
2022-08-27T23:49:18.415Z,99403.06
2022-08-27T23:52:06.919Z,99407.91
2022-08-27T23:54:54.940Z,99406.06
2022-08-27T23:57:43.278Z,99409.78
